Time;durP1;ratioP1;P1;durP2;ratioP2;P2;SDS_P1;SDS_P2;PMS_P1;PMS_P2;Temp;Humidity;BMP_temperature;BMP_pressure;BME280_temperature;BME280_humidity;BME280_pressure;Samples;Min_cycle;Max_cycle;Signal;HPM_P1;HPM_P2
2021/04/30 00:00:23;;;;;;;14.43;6.40;;;10.40;99.90;;;;;;5029835;28;20499;-75
2021/04/30 00:02:49;;;;;;;11.35;6.03;;;10.30;99.90;;;;;;5024687;28;20033;-74
2021/04/30 00:05:14;;;;;;;13.85;5.97;;;10.30;99.90;;;;;;5023079;28;20037;-75
2021/04/30 00:07:40;;;;;;;9.43;5.82;;;10.20;99.90;;;;;;5029707;28;20025;-75
2021/04/30 00:10:06;;;;;;;10.10;5.47;;;10.20;99.90;;;;;;5022112;28;20495;-74
2021/04/30 00:12:32;;;;;;;12.75;5.47;;;10.20;99.90;;;;;;5015040;28;20113;-75
2021/04/30 00:14:57;;;;;;;8.60;4.78;;;10.20;99.90;;;;;;5025637;28;20109;-75
2021/04/30 00:17:23;;;;;;;9.32;5.15;;;10.10;99.90;;;;;;5018662;28;20389;-75
2021/04/30 00:19:51;;;;;;;10.77;5.03;;;10.00;99.90;;;;;;5021947;28;20435;-74
2021/04/30 00:22:17;;;;;;;9.20;5.07;;;10.10;99.90;;;;;;5027859;28;20025;-74
2021/04/30 00:24:42;;;;;;;8.45;4.57;;;10.00;99.90;;;;;;5021165;28;20033;-74
2021/04/30 00:27:10;;;;;;;10.65;4.68;;;10.00;99.90;;;;;;5020231;28;20058;-74
2021/04/30 00:29:39;;;;;;;9.48;4.15;;;10.10;99.90;;;;;;5025082;28;20109;-74
2021/04/30 00:32:05;;;;;;;7.68;4.82;;;10.00;99.90;;;;;;5029766;28;20061;-74
2021/04/30 00:34:32;;;;;;;15.50;4.80;;;10.00;99.90;;;;;;5027286;28;20112;-74
2021/04/30 00:36:58;;;;;;;6.75;4.40;;;9.90;99.90;;;;;;5026195;28;20032;-74
2021/04/30 00:39:23;;;;;;;7.57;4.75;;;9.80;99.90;;;;;;5022429;28;20284;-74
2021/04/30 00:41:49;;;;;;;7.55;4.60;;;9.80;99.90;;;;;;5019534;28;20049;-75
2021/04/30 00:44:14;;;;;;;7.75;4.47;;;9.80;99.90;;;;;;5013496;28;20488;-75
2021/04/30 00:46:40;;;;;;;7.25;4.55;;;9.80;99.90;;;;;;5028530;28;20030;-74
2021/04/30 00:49:05;;;;;;;7.93;4.18;;;9.80;99.90;;;;;;5027222;28;20028;-74
2021/04/30 00:51:31;;;;;;;9.88;4.55;;;9.80;99.90;;;;;;5016325;28;20041;-74
2021/04/30 00:53:57;;;;;;;6.43;3.80;;;9.80;99.90;;;;;;5027097;28;20499;-74
2021/04/30 00:56:23;;;;;;;9.32;4.82;;;9.80;99.90;;;;;;5030055;28;20025;-74
2021/04/30 00:58:49;;;;;;;7.85;4.47;;;9.90;99.90;;;;;;5013795;28;20489;-74
2021/04/30 01:01:15;;;;;;;7.80;4.57;;;9.90;99.90;;;;;;5019420;28;20056;-74
2021/04/30 01:03:48;;;;;;;7.05;4.22;;;9.90;99.90;;;;;;5022593;28;20497;-74
2021/04/30 01:06:14;;;;;;;7.05;3.80;;;9.90;99.90;;;;;;5028898;28;20041;-74
2021/04/30 01:08:40;;;;;;;7.80;4.63;;;9.80;99.90;;;;;;5020767;28;20514;-75
2021/04/30 01:11:06;;;;;;;9.07;4.95;;;9.80;99.90;;;;;;5028347;28;20038;-74
2021/04/30 01:13:31;;;;;;;9.07;4.88;;;9.80;99.90;;;;;;5020790;28;20052;-74
2021/04/30 01:15:57;;;;;;;8.15;4.53;;;9.90;99.90;;;;;;5022084;28;20443;-74
2021/04/30 01:18:22;;;;;;;6.97;4.50;;;9.80;99.90;;;;;;5018542;28;20029;-75
2021/04/30 01:20:48;;;;;;;14.65;5.88;;;9.80;99.90;;;;;;5023413;28;20065;-74
2021/04/30 01:23:14;;;;;;;9.32;4.47;;;9.70;99.90;;;;;;5017612;28;20492;-75
2021/04/30 01:25:39;;;;;;;8.88;4.57;;;9.70;99.90;;;;;;5014325;28;20034;-74
2021/04/30 01:28:06;;;;;;;6.90;4.25;;;9.70;99.90;;;;;;5019271;28;20038;-74
2021/04/30 01:30:35;;;;;;;8.10;4.40;;;9.70;99.90;;;;;;5016063;28;20029;-74
2021/04/30 01:33:02;;;;;;;6.07;4.05;;;9.70;99.90;;;;;;5023037;28;20105;-74
2021/04/30 01:35:35;;;;;;;8.07;4.13;;;9.60;99.90;;;;;;5015319;28;20033;-74
2021/04/30 01:38:03;;;;;;;7.82;4.25;;;9.60;99.90;;;;;;5013631;28;20120;-74
2021/04/30 01:40:31;;;;;;;7.65;4.40;;;9.60;99.90;;;;;;5026683;28;20498;-74
2021/04/30 01:43:07;;;;;;;7.32;4.28;;;9.60;99.90;;;;;;5024782;28;20113;-74
2021/04/30 01:45:36;;;;;;;6.63;3.88;;;9.70;99.90;;;;;;5025652;28;20018;-73
2021/04/30 01:48:11;;;;;;;7.82;3.90;;;9.60;99.90;;;;;;5021664;28;20034;-74
2021/04/30 01:50:37;;;;;;;8.25;4.20;;;9.70;99.90;;;;;;5015036;28;20046;-74
2021/04/30 01:53:02;;;;;;;8.18;4.47;;;9.70;99.90;;;;;;5019843;28;20028;-74
2021/04/30 01:55:29;;;;;;;8.23;4.47;;;9.70;99.90;;;;;;5017992;28;20358;-74
2021/04/30 01:57:58;;;;;;;8.40;4.63;;;9.70;99.90;;;;;;5025199;28;20048;-74
2021/04/30 02:00:25;;;;;;;11.82;4.22;;;9.60;99.90;;;;;;4996922;28;20017;-73
2021/04/30 02:02:53;;;;;;;6.30;4.05;;;9.60;99.90;;;;;;5027581;28;20034;-74
2021/04/30 02:05:20;;;;;;;9.48;4.35;;;9.60;99.90;;;;;;5019377;28;20434;-74
2021/04/30 02:07:46;;;;;;;7.25;4.40;;;9.70;99.90;;;;;;5018179;28;20370;-74
2021/04/30 02:10:23;;;;;;;8.45;5.00;;;9.70;99.90;;;;;;5017611;28;20041;-74
2021/04/30 02:12:50;;;;;;;7.72;4.63;;;9.70;99.90;;;;;;5022078;28;20029;-75
2021/04/30 02:15:18;;;;;;;9.80;4.97;;;9.60;99.90;;;;;;5024405;28;20816;-74
2021/04/30 02:17:44;;;;;;;7.93;4.45;;;9.60;99.90;;;;;;5026326;28;20105;-74
2021/04/30 02:20:11;;;;;;;12.00;5.15;;;9.60;99.90;;;;;;5026861;28;20179;-74
2021/04/30 02:22:37;;;;;;;8.38;5.28;;;9.60;99.90;;;;;;5015480;28;20030;-74
2021/04/30 02:25:04;;;;;;;8.95;4.70;;;9.60;99.90;;;;;;5014428;28;20095;-74
2021/04/30 02:27:30;;;;;;;11.75;6.00;;;9.50;99.90;;;;;;5013741;28;20102;-74
2021/04/30 02:29:55;;;;;;;12.80;5.30;;;9.50;99.90;;;;;;5019890;28;20053;-74
2021/04/30 02:32:22;;;;;;;9.15;4.90;;;9.60;99.90;;;;;;5013683;28;20025;-74
2021/04/30 02:34:48;;;;;;;9.20;4.88;;;9.60;99.90;;;;;;5013592;28;20068;-74
2021/04/30 02:37:14;;;;;;;8.05;5.00;;;9.60;99.90;;;;;;5011183;28;20448;-74
2021/04/30 02:39:39;;;;;;;8.25;4.95;;;9.60;99.90;;;;;;5024314;28;20572;-74
2021/04/30 02:42:05;;;;;;;10.50;5.70;;;9.60;99.90;;;;;;5020442;28;20423;-74
2021/04/30 02:44:31;;;;;;;8.82;4.97;;;9.50;99.90;;;;;;5010925;28;20029;-74
2021/04/30 02:46:57;;;;;;;10.45;5.05;;;9.50;99.90;;;;;;5016823;28;20527;-74
2021/04/30 02:49:38;;;;;;;8.40;4.70;;;9.50;99.90;;;;;;5024968;28;20033;-73
2021/04/30 02:52:05;;;;;;;11.57;5.90;;;9.50;99.90;;;;;;5014588;28;20045;-74
2021/04/30 02:54:30;;;;;;;12.55;5.20;;;9.40;99.90;;;;;;5027682;28;20029;-75
2021/04/30 02:56:56;;;;;;;7.53;4.25;;;9.40;99.90;;;;;;5022264;28;20031;-75
2021/04/30 02:59:21;;;;;;;10.07;5.88;;;9.30;99.90;;;;;;5018549;28;20022;-74
2021/04/30 03:01:47;;;;;;;11.98;5.55;;;9.30;99.90;;;;;;5022586;28;20025;-74
2021/04/30 03:04:12;;;;;;;9.80;5.70;;;9.30;99.90;;;;;;5014211;28;20049;-74
2021/04/30 03:06:38;;;;;;;8.82;5.15;;;9.40;99.90;;;;;;5021700;28;20025;-73
2021/04/30 03:09:10;;;;;;;13.95;5.65;;;9.30;99.90;;;;;;5023043;28;20049;-74
2021/04/30 03:11:36;;;;;;;8.30;5.43;;;9.40;99.90;;;;;;5016568;28;20477;-73
2021/04/30 03:14:01;;;;;;;10.13;5.43;;;9.30;99.90;;;;;;5018729;28;20025;-74
2021/04/30 03:16:27;;;;;;;6.35;4.05;;;9.30;99.90;;;;;;5020674;28;20037;-74
2021/04/30 03:18:53;;;;;;;6.40;4.30;;;9.20;99.90;;;;;;5017266;28;20033;-74
2021/04/30 03:21:18;;;;;;;7.22;4.00;;;9.10;99.90;;;;;;5019133;28;20117;-74
2021/04/30 03:23:44;;;;;;;6.10;3.63;;;9.00;99.90;;;;;;4996559;28;20033;-74
2021/04/30 03:26:09;;;;;;;8.10;3.92;;;9.00;99.90;;;;;;5015107;28;20041;-74
2021/04/30 03:28:34;;;;;;;8.77;4.70;;;8.90;99.90;;;;;;5016945;28;20034;-74
2021/04/30 03:31:00;;;;;;;9.40;4.60;;;8.90;99.90;;;;;;5019148;28;20044;-74
2021/04/30 03:33:25;;;;;;;7.60;4.22;;;8.90;99.90;;;;;;5011648;28;20499;-74
2021/04/30 03:35:51;;;;;;;8.93;4.90;;;8.90;99.90;;;;;;5014901;28;20028;-74
2021/04/30 03:38:17;;;;;;;8.13;4.40;;;9.00;99.90;;;;;;5028990;28;20029;-74
2021/04/30 03:40:42;;;;;;;10.48;5.03;;;8.90;99.90;;;;;;5021782;28;20060;-74
2021/04/30 03:43:08;;;;;;;7.32;3.85;;;8.90;99.90;;;;;;5015802;28;20041;-74
2021/04/30 03:45:33;;;;;;;8.32;4.45;;;8.90;99.90;;;;;;5023546;28;20029;-75
2021/04/30 03:47:59;;;;;;;10.02;4.50;;;8.90;99.90;;;;;;5013282;28;20149;-73
2021/04/30 03:50:24;;;;;;;8.45;4.65;;;8.90;99.90;;;;;;5015338;28;20049;-74
2021/04/30 03:52:50;;;;;;;7.30;4.15;;;8.90;99.90;;;;;;5020655;28;20022;-74
2021/04/30 03:55:15;;;;;;;12.30;5.30;;;8.90;99.90;;;;;;5021398;28;20104;-74
2021/04/30 03:57:41;;;;;;;8.65;4.65;;;8.90;99.90;;;;;;5025897;28;20022;-74
2021/04/30 04:00:07;;;;;;;9.65;5.38;;;9.00;99.90;;;;;;5024949;28;20028;-74
2021/04/30 04:02:32;;;;;;;11.35;5.45;;;8.90;99.90;;;;;;5022511;28;20522;-74
2021/04/30 04:04:58;;;;;;;9.82;6.10;;;9.00;99.90;;;;;;5024518;28;20025;-73
2021/04/30 04:07:23;;;;;;;11.65;6.65;;;9.00;99.90;;;;;;5026777;28;20399;-74
2021/04/30 04:09:49;;;;;;;9.13;5.05;;;9.10;99.90;;;;;;5021121;28;20512;-74
2021/04/30 04:12:14;;;;;;;9.45;5.20;;;9.10;99.90;;;;;;5022474;28;20057;-74
2021/04/30 04:14:40;;;;;;;9.50;5.53;;;9.10;99.90;;;;;;5027012;28;20033;-74
2021/04/30 04:17:06;;;;;;;12.57;5.78;;;9.10;99.90;;;;;;5028312;28;20096;-73
2021/04/30 04:19:32;;;;;;;12.77;5.72;;;9.10;99.90;;;;;;5032266;28;20524;-74
2021/04/30 04:21:57;;;;;;;13.50;6.47;;;9.00;99.90;;;;;;5027683;28;20026;-74
2021/04/30 04:24:23;;;;;;;11.73;6.70;;;9.00;99.90;;;;;;5027833;28;20703;-74
2021/04/30 04:26:48;;;;;;;10.25;5.70;;;8.90;99.90;;;;;;5020330;28;20495;-74
2021/04/30 04:29:14;;;;;;;11.15;6.10;;;9.00;99.90;;;;;;5016710;28;20033;-74
2021/04/30 04:31:39;;;;;;;12.90;6.47;;;9.00;99.90;;;;;;5026521;28;20033;-74
2021/04/30 04:34:05;;;;;;;9.05;5.60;;;9.00;99.90;;;;;;5023015;28;20041;-74
2021/04/30 04:36:32;;;;;;;10.20;5.20;;;9.10;99.90;;;;;;5020270;28;20064;-74
2021/04/30 04:38:58;;;;;;;10.30;6.13;;;9.10;99.90;;;;;;5017706;28;20021;-75
2021/04/30 04:41:23;;;;;;;8.95;5.50;;;9.10;99.90;;;;;;5022442;28;20033;-74
2021/04/30 04:43:48;;;;;;;8.43;4.68;;;9.10;99.90;;;;;;5021901;28;20106;-75
2021/04/30 04:46:14;;;;;;;9.10;5.40;;;9.10;99.90;;;;;;5020235;28;20026;-76
2021/04/30 04:48:40;;;;;;;10.93;6.18;;;9.10;99.90;;;;;;5018753;28;20041;-74
2021/04/30 04:51:05;;;;;;;10.70;4.75;;;9.10;99.90;;;;;;5021553;28;20495;-76
2021/04/30 04:53:31;;;;;;;7.38;4.60;;;9.20;99.90;;;;;;5019081;28;20029;-75
2021/04/30 04:55:56;;;;;;;8.00;4.72;;;9.20;99.90;;;;;;5028022;28;20053;-76
2021/04/30 04:58:22;;;;;;;10.65;5.18;;;9.20;99.90;;;;;;5022842;28;20094;-75
2021/04/30 05:00:47;;;;;;;11.60;5.35;;;9.10;99.90;;;;;;5014288;28;20037;-75
2021/04/30 05:03:13;;;;;;;8.32;4.93;;;9.10;99.90;;;;;;5022821;28;20096;-75
2021/04/30 05:05:38;;;;;;;7.93;4.55;;;9.30;99.90;;;;;;5023165;28;20037;-75
2021/04/30 05:08:04;;;;;;;6.00;4.55;;;9.20;99.90;;;;;;5024361;28;20018;-74
2021/04/30 05:10:29;;;;;;;8.55;4.78;;;9.30;99.90;;;;;;5017466;28;20369;-72
2021/04/30 05:12:59;;;;;;;7.85;5.15;;;9.20;99.90;;;;;;5024488;28;20033;-73
2021/04/30 05:15:27;;;;;;;9.13;4.53;;;9.20;99.90;;;;;;5026388;28;20021;-74
2021/04/30 05:17:53;;;;;;;7.53;4.47;;;9.20;99.90;;;;;;5023811;28;20026;-74
2021/04/30 05:20:18;;;;;;;8.00;4.40;;;9.20;99.90;;;;;;5026798;28;20059;-77
2021/04/30 05:22:45;;;;;;;9.57;5.03;;;9.20;99.90;;;;;;5022382;28;20075;-75
2021/04/30 05:25:12;;;;;;;8.13;4.22;;;9.20;99.90;;;;;;5021969;28;20055;-75
2021/04/30 05:27:41;;;;;;;8.25;4.43;;;9.20;99.90;;;;;;5018935;28;20045;-76
2021/04/30 05:30:11;;;;;;;7.28;4.55;;;9.30;99.90;;;;;;5024193;28;20555;-74
2021/04/30 05:32:36;;;;;;;8.52;4.63;;;9.20;99.90;;;;;;5020654;28;20110;-73
2021/04/30 05:35:03;;;;;;;9.40;4.20;;;9.30;99.90;;;;;;5021925;28;20053;-76
2021/04/30 05:37:33;;;;;;;8.77;3.90;;;9.30;99.90;;;;;;5017261;28;20026;-75
2021/04/30 05:39:59;;;;;;;5.10;3.50;;;9.40;99.90;;;;;;5019688;28;20022;-74
2021/04/30 05:42:34;;;;;;;8.70;4.70;;;9.40;99.90;;;;;;5022870;28;20030;-76
2021/04/30 05:45:00;;;;;;;6.63;3.95;;;9.30;99.90;;;;;;5021802;28;20025;-75
2021/04/30 05:47:26;;;;;;;6.78;4.22;;;9.30;99.90;;;;;;5023244;28;20084;-73
2021/04/30 05:49:51;;;;;;;6.90;4.07;;;9.30;99.90;;;;;;5022095;28;20116;-75
2021/04/30 05:52:18;;;;;;;6.97;3.75;;;9.30;99.90;;;;;;5015122;28;20037;-80
2021/04/30 05:54:43;;;;;;;7.97;3.83;;;9.30;99.90;;;;;;5014624;28;20053;-79
2021/04/30 05:57:09;;;;;;;5.32;3.35;;;9.30;99.90;;;;;;5021991;28;20235;-83
2021/04/30 05:59:35;;;;;;;6.60;4.07;;;9.50;99.90;;;;;;5018911;28;20030;-77
2021/04/30 06:02:00;;;;;;;6.32;3.90;;;9.60;99.90;;;;;;5016582;28;20031;-77
2021/04/30 06:04:26;;;;;;;8.38;4.13;;;9.60;99.90;;;;;;5013941;28;20037;-78
2021/04/30 06:06:53;;;;;;;38.50;6.30;;;9.70;99.90;;;;;;5015091;28;20157;-80
2021/04/30 06:09:19;;;;;;;9.90;3.95;;;9.70;99.90;;;;;;5018207;28;20091;-77
2021/04/30 06:11:45;;;;;;;7.80;3.90;;;9.80;99.90;;;;;;5017333;28;20400;-79
2021/04/30 06:14:11;;;;;;;6.57;3.60;;;9.80;99.90;;;;;;5018507;28;20052;-79
2021/04/30 06:16:39;;;;;;;7.55;4.57;;;9.70;99.90;;;;;;5022277;28;20079;-78
2021/04/30 06:19:07;;;;;;;8.55;4.10;;;9.70;99.90;;;;;;5017053;28;20032;-80
2021/04/30 06:21:33;;;;;;;7.50;3.38;;;9.70;99.90;;;;;;5022520;28;20080;-83
2021/04/30 06:24:01;;;;;;;4.70;2.72;;;9.80;99.90;;;;;;5016797;28;21477;-80
2021/04/30 06:26:26;;;;;;;4.70;3.15;;;9.80;99.90;;;;;;5019671;28;20068;-77
2021/04/30 06:28:52;;;;;;;4.30;2.30;;;9.70;99.90;;;;;;5013657;28;20061;-78
2021/04/30 06:31:18;;;;;;;3.97;2.47;;;9.70;99.90;;;;;;5023447;28;20048;-84
2021/04/30 06:33:43;;;;;;;5.43;2.70;;;9.70;99.90;;;;;;5019369;28;20056;-77
2021/04/30 06:36:09;;;;;;;3.97;2.65;;;9.60;99.90;;;;;;5023621;28;20080;-74
2021/04/30 06:38:34;;;;;;;4.90;2.65;;;9.50;99.90;;;;;;5025579;28;20028;-78
2021/04/30 06:41:00;;;;;;;5.13;2.53;;;9.50;99.90;;;;;;5017696;28;20400;-76
2021/04/30 06:43:32;;;;;;;3.38;1.75;;;9.50;99.90;;;;;;5018933;28;20029;-80
2021/04/30 06:45:57;;;;;;;3.53;2.30;;;9.60;99.90;;;;;;5023171;28;20051;-75
2021/04/30 06:48:23;;;;;;;3.95;2.60;;;9.60;99.90;;;;;;5014163;28;20057;-77
2021/04/30 06:50:49;;;;;;;5.57;2.75;;;9.60;99.90;;;;;;5025303;28;20041;-77
2021/04/30 06:53:17;;;;;;;4.38;2.17;;;9.60;99.90;;;;;;5002168;28;20030;-78
2021/04/30 06:55:53;;;;;;;4.95;2.13;;;9.60;99.90;;;;;;5022498;28;20569;-76
2021/04/30 06:58:18;;;;;;;4.35;2.30;;;9.50;99.90;;;;;;4994357;28;20026;-80
2021/04/30 07:00:46;;;;;;;3.72;2.28;;;9.50;99.90;;;;;;5024102;28;20365;-83
2021/04/30 07:03:12;;;;;;;3.80;2.25;;;9.40;99.90;;;;;;5023421;28;20109;-85
2021/04/30 07:05:38;;;;;;;3.53;2.05;;;9.40;99.90;;;;;;5025248;28;20113;-83
2021/04/30 07:08:04;;;;;;;4.15;2.53;;;9.60;99.90;;;;;;5021346;28;20442;-84
2021/04/30 07:10:31;;;;;;;8.02;2.55;;;9.40;99.90;;;;;;5022564;28;20034;-86
2021/04/30 07:12:57;;;;;;;3.38;1.98;;;9.50;99.90;;;;;;5023934;28;20099;-83
2021/04/30 07:15:22;;;;;;;3.70;2.03;;;9.50;99.90;;;;;;5020839;28;20072;-82
2021/04/30 07:17:48;;;;;;;12.85;2.65;;;9.60;99.90;;;;;;5022178;28;20034;-78
2021/04/30 07:20:13;;;;;;;3.20;2.10;;;9.80;99.90;;;;;;5011244;28;20026;-81
2021/04/30 07:22:39;;;;;;;3.42;2.33;;;10.00;99.90;;;;;;5021970;28;20064;-77
2021/04/30 07:25:06;;;;;;;7.18;2.22;;;10.10;99.90;;;;;;5018371;28;20029;-85
2021/04/30 07:27:32;;;;;;;6.60;2.25;;;10.10;99.90;;;;;;5015001;28;20156;-80
2021/04/30 07:29:58;;;;;;;3.70;2.15;;;10.10;99.90;;;;;;5019140;28;20026;-85
2021/04/30 07:32:24;;;;;;;3.55;1.98;;;10.20;99.90;;;;;;5022344;28;20625;-82
2021/04/30 07:34:49;;;;;;;8.70;1.90;;;10.20;99.90;;;;;;5018123;28;20021;-78
2021/04/30 07:37:18;;;;;;;5.30;2.17;;;10.10;99.90;;;;;;5026394;28;20029;-84
2021/04/30 07:39:44;;;;;;;4.15;2.50;;;10.00;99.90;;;;;;5026087;28;20108;-83
2021/04/30 07:42:10;;;;;;;6.07;2.30;;;9.90;99.90;;;;;;5023131;28;20116;-89
2021/04/30 07:44:35;;;;;;;3.53;2.20;;;9.90;99.90;;;;;;5018531;28;20052;-85
2021/04/30 07:47:01;;;;;;;2.78;2.03;;;9.90;99.90;;;;;;5018868;28;20033;-86
2021/04/30 07:49:27;;;;;;;3.47;2.60;;;10.00;99.90;;;;;;5028203;28;20030;-85
2021/04/30 07:51:52;;;;;;;4.38;2.38;;;10.10;99.90;;;;;;5019552;28;20060;-86
2021/04/30 07:54:18;;;;;;;3.13;2.10;;;10.20;99.90;;;;;;5021470;28;20440;-88
2021/04/30 07:56:44;;;;;;;3.35;2.15;;;10.10;99.90;;;;;;5027380;28;20473;-87
2021/04/30 07:59:10;;;;;;;3.15;2.33;;;10.10;99.90;;;;;;5004955;28;20046;-80
2021/04/30 08:01:36;;;;;;;6.28;2.58;;;10.10;99.90;;;;;;5024237;28;20037;-83
2021/04/30 08:04:01;;;;;;;6.50;2.50;;;10.10;99.90;;;;;;5017355;28;20037;-80
2021/04/30 08:06:27;;;;;;;4.70;2.92;;;10.00;99.90;;;;;;5024671;28;20040;-81
2021/04/30 08:08:53;;;;;;;5.82;2.40;;;10.00;99.90;;;;;;5024300;28;20127;-82
2021/04/30 08:11:18;;;;;;;6.72;2.67;;;9.90;99.90;;;;;;5030212;28;20032;-86
2021/04/30 08:13:44;;;;;;;5.82;2.80;;;10.00;99.90;;;;;;5029167;28;20021;-80
2021/04/30 08:16:09;;;;;;;2.55;2.10;;;10.00;99.90;;;;;;5029190;28;20026;-79
2021/04/30 08:18:35;;;;;;;4.35;2.25;;;10.10;99.90;;;;;;5013239;28;20480;-86
2021/04/30 08:21:00;;;;;;;5.32;2.30;;;10.10;99.90;;;;;;5017635;28;20140;-80
2021/04/30 08:23:26;;;;;;;3.47;2.25;;;9.90;99.90;;;;;;5025131;28;20029;-82
2021/04/30 08:25:57;;;;;;;148.95;13.18;;;9.80;99.90;;;;;;5018343;28;20049;-83
2021/04/30 08:28:22;;;;;;;27.55;3.00;;;9.80;99.90;;;;;;5023766;28;20099;-79
2021/04/30 08:30:48;;;;;;;4.88;2.70;;;9.80;99.90;;;;;;5025597;28;20034;-81
2021/04/30 08:33:14;;;;;;;4.80;2.25;;;9.90;99.90;;;;;;5025920;28;20079;-83
2021/04/30 08:35:40;;;;;;;4.10;2.25;;;9.90;99.90;;;;;;5018279;28;20134;-80
2021/04/30 08:38:05;;;;;;;3.08;1.77;;;9.90;99.90;;;;;;5023066;28;20029;-79
2021/04/30 08:40:31;;;;;;;2.25;1.35;;;10.00;99.90;;;;;;5026708;28;20161;-80
2021/04/30 08:42:58;;;;;;;2.85;1.75;;;10.00;99.90;;;;;;5027333;28;20034;-85
2021/04/30 08:45:25;;;;;;;4.32;1.40;;;10.10;99.90;;;;;;5028849;28;20484;-79
2021/04/30 08:47:51;;;;;;;4.55;2.03;;;10.10;99.90;;;;;;5023632;28;20026;-80
2021/04/30 08:50:17;;;;;;;1.83;1.40;;;10.20;99.90;;;;;;5023049;28;20141;-79
2021/04/30 08:52:43;;;;;;;2.40;1.70;;;10.30;99.90;;;;;;5016945;28;20037;-82
2021/04/30 08:55:14;;;;;;;207.23;13.80;;;10.40;99.90;;;;;;5014475;28;20520;-87
2021/04/30 08:57:42;;;;;;;2.63;1.63;;;10.50;99.90;;;;;;5015373;28;20117;-82
2021/04/30 09:00:09;;;;;;;3.55;2.42;;;10.70;99.90;;;;;;5022141;28;20029;-78
2021/04/30 09:02:39;;;;;;;4.03;1.80;;;10.90;99.60;;;;;;5018804;28;20539;-83
2021/04/30 09:05:10;;;;;;;5.32;2.08;;;11.00;97.70;;;;;;5023478;28;20033;-85
2021/04/30 09:07:43;;;;;;;3.00;1.98;;;11.10;98.00;;;;;;5026033;28;20034;-78
2021/04/30 09:10:14;;;;;;;4.07;1.90;;;11.30;97.20;;;;;;5022959;28;20056;-82
2021/04/30 09:12:41;;;;;;;3.13;1.92;;;11.40;95.70;;;;;;5011182;28;20030;-86
2021/04/30 09:15:17;;;;;;;2.50;1.77;;;11.60;94.40;;;;;;5021609;28;20084;-85
2021/04/30 09:17:43;;;;;;;8.18;2.22;;;11.80;94.40;;;;;;5009049;28;20128;-84
2021/04/30 09:20:09;;;;;;;4.25;2.03;;;11.90;93.50;;;;;;5019275;28;20134;-83
2021/04/30 09:22:40;;;;;;;3.08;1.70;;;11.90;92.60;;;;;;5028581;28;20056;-86
2021/04/30 09:25:18;;;;;;;2.45;1.70;;;11.90;91.90;;;;;;5021561;28;20033;-89
2021/04/30 09:27:49;;;;;;;4.15;1.73;;;12.10;91.40;;;;;;5018260;28;20044;-84
2021/04/30 09:30:16;;;;;;;4.28;1.77;;;12.10;90.50;;;;;;5024708;28;20036;-76
2021/04/30 09:33:03;;;;;;;2.42;1.73;;;12.10;90.10;;;;;;5015709;28;20858;-81
2021/04/30 09:35:39;;;;;;;2.20;1.42;;;12.00;90.20;;;;;;5018289;28;20125;-82
2021/04/30 09:38:20;;;;;;;2.75;1.50;;;12.00;91.20;;;;;;5024256;28;20017;-83
2021/04/30 09:40:47;;;;;;;1.67;1.27;;;12.00;90.90;;;;;;5023615;28;20026;-82
2021/04/30 09:43:13;;;;;;;2.15;1.60;;;11.90;90.90;;;;;;5024314;28;20025;-82
2021/04/30 09:45:40;;;;;;;2.78;2.22;;;12.00;90.30;;;;;;5007135;28;20025;-79
2021/04/30 09:48:11;;;;;;;5.47;2.10;;;11.90;88.80;;;;;;5016576;28;20026;-84
2021/04/30 09:50:38;;;;;;;13.77;1.58;;;11.90;90.40;;;;;;5014385;28;20088;-85
2021/04/30 09:53:08;;;;;;;6.60;2.10;;;11.90;91.00;;;;;;5020850;28;20022;-84
2021/04/30 09:55:51;;;;;;;7.28;1.88;;;11.90;89.30;;;;;;5028315;28;20052;-85
2021/04/30 09:58:21;;;;;;;2.33;1.77;;;11.80;90.20;;;;;;5024184;28;20029;-83
2021/04/30 10:00:48;;;;;;;2.35;1.42;;;11.60;90.10;;;;;;5018098;28;20472;-83
2021/04/30 10:03:27;;;;;;;3.47;2.00;;;11.50;90.40;;;;;;5018612;28;20111;-85
2021/04/30 10:06:17;;;;;;;2.42;1.63;;;11.50;90.60;;;;;;5021667;28;20092;-84
2021/04/30 10:09:04;;;;;;;2.70;1.70;;;11.60;90.50;;;;;;5021712;28;20404;-88
2021/04/30 10:11:31;;;;;;;2.30;1.60;;;11.60;89.30;;;;;;5013664;28;20436;-88
2021/04/30 10:13:57;;;;;;;6.65;1.92;;;11.50;89.60;;;;;;5022653;28;20029;-83
2021/04/30 10:16:23;;;;;;;3.13;2.08;;;11.70;90.50;;;;;;5021613;28;20025;-81
2021/04/30 10:18:48;;;;;;;3.45;2.08;;;11.80;87.70;;;;;;5011658;28;20476;-81
2021/04/30 10:21:15;;;;;;;4.30;2.22;;;12.00;89.00;;;;;;5016458;28;20488;-80
2021/04/30 10:23:51;;;;;;;2.20;1.65;;;12.20;85.20;;;;;;5016438;28;20077;-83
2021/04/30 10:26:19;;;;;;;5.38;2.20;;;12.40;84.10;;;;;;5014331;28;20036;-80
2021/04/30 10:28:50;;;;;;;5.05;1.90;;;12.60;83.20;;;;;;5017453;28;20063;-80
2021/04/30 10:31:22;;;;;;;3.00;1.85;;;12.80;85.40;;;;;;5020548;28;20045;-81
2021/04/30 10:33:53;;;;;;;1.75;1.25;;;12.90;80.50;;;;;;5016696;28;20056;-88
2021/04/30 10:36:31;;;;;;;4.80;1.70;;;13.00;80.60;;;;;;5022913;28;20030;-85
2021/04/30 10:38:59;;;;;;;2.35;1.58;;;13.30;79.20;;;;;;5015791;28;20030;-87
2021/04/30 10:41:33;;;;;;;4.20;1.70;;;13.20;79.80;;;;;;5013815;28;20131;-85
2021/04/30 10:44:28;;;;;;;3.03;1.83;;;13.20;79.90;;;;;;5015504;28;20059;-88
2021/04/30 10:47:15;;;;;;;3.88;2.00;;;13.00;79.10;;;;;;5023783;28;20038;-87
2021/04/30 10:49:42;;;;;;;3.90;1.50;;;13.10;81.90;;;;;;5012206;28;20140;-77
2021/04/30 10:52:19;;;;;;;2.58;1.67;;;13.30;82.50;;;;;;5016827;28;20076;-78
2021/04/30 10:55:12;;;;;;;2.13;1.58;;;13.40;81.20;;;;;;5022330;28;20362;-83
2021/04/30 10:57:56;;;;;;;1.98;1.40;;;13.50;80.00;;;;;;5020438;28;20120;-81
2021/04/30 11:00:40;;;;;;;4.88;1.90;;;13.60;76.30;;;;;;5023446;28;20026;-79
2021/04/30 11:03:23;;;;;;;3.05;1.75;;;13.50;76.90;;;;;;5020313;28;20109;-78
2021/04/30 11:05:58;;;;;;;1.65;1.17;;;13.30;79.80;;;;;;5016813;28;20065;-78
2021/04/30 11:08:46;;;;;;;3.30;2.20;;;13.20;79.80;;;;;;5015143;28;20096;-79
2021/04/30 11:11:11;;;;;;;2.70;1.73;;;13.00;79.90;;;;;;5022414;28;20038;-80
2021/04/30 11:13:37;;;;;;;2.22;1.63;;;12.60;80.30;;;;;;5018446;28;20631;-79
2021/04/30 11:16:06;;;;;;;3.88;2.45;;;12.40;83.50;;;;;;5015288;28;20105;-79
2021/04/30 11:18:58;;;;;;;4.32;1.83;;;12.30;83.30;;;;;;5024207;28;20034;-80
2021/04/30 11:21:46;;;;;;;3.33;1.90;;;12.10;84.30;;;;;;5025901;28;20060;-78
2021/04/30 11:24:32;;;;;;;2.65;1.80;;;12.10;86.80;;;;;;5016441;28;20040;-80
2021/04/30 11:27:33;;;;;;;4.97;2.15;;;12.10;85.90;;;;;;5028935;28;20030;-79
2021/04/30 11:30:19;;;;;;;5.07;2.55;;;12.10;87.60;;;;;;5011661;28;20109;-84
2021/04/30 11:32:55;;;;;;;5.00;2.10;;;12.00;89.10;;;;;;5011498;28;20515;-85
2021/04/30 11:35:21;;;;;;;3.22;2.15;;;12.10;88.90;;;;;;5019784;28;20555;-84
2021/04/30 11:37:49;;;;;;;3.50;1.92;;;12.10;89.30;;;;;;5024998;28;20029;-85
2021/04/30 11:40:15;;;;;;;5.15;2.83;;;12.10;90.20;;;;;;5021407;28;20083;-86
2021/04/30 11:42:41;;;;;;;4.20;2.38;;;12.10;87.90;;;;;;5021168;28;20029;-84
2021/04/30 11:45:08;;;;;;;3.45;2.30;;;11.90;89.10;;;;;;5020613;28;20537;-82
2021/04/30 11:47:36;;;;;;;7.05;2.78;;;11.70;89.50;;;;;;5011284;28;20044;-82
2021/04/30 11:50:10;;;;;;;7.60;2.80;;;11.60;91.30;;;;;;5013207;28;20083;-81
2021/04/30 11:52:41;;;;;;;3.88;2.42;;;11.60;91.10;;;;;;5010633;28;20133;-82
2021/04/30 11:55:10;;;;;;;4.22;2.35;;;11.50;91.00;;;;;;5019993;28;20022;-83
2021/04/30 11:57:36;;;;;;;4.35;2.55;;;11.50;91.40;;;;;;5024810;28;20025;-82
2021/04/30 12:00:10;;;;;;;6.15;2.78;;;11.40;91.60;;;;;;5021665;28;20032;-83
2021/04/30 12:02:39;;;;;;;6.00;3.10;;;11.30;92.20;;;;;;5015917;28;20042;-82
2021/04/30 12:05:05;;;;;;;3.28;2.58;;;11.30;92.70;;;;;;5024904;28;20026;-83
2021/04/30 12:07:33;;;;;;;3.67;2.47;;;11.40;92.40;;;;;;5027063;28;20488;-82
2021/04/30 12:09:59;;;;;;;4.30;2.65;;;11.60;92.20;;;;;;5021608;28;20384;-87
2021/04/30 12:12:27;;;;;;;3.60;2.30;;;11.70;91.30;;;;;;5021054;28;20115;-87
2021/04/30 12:15:07;;;;;;;4.07;2.28;;;11.70;91.10;;;;;;5026594;28;20162;-87
2021/04/30 12:17:34;;;;;;;3.83;2.70;;;11.80;91.60;;;;;;5021734;28;20045;-87
2021/04/30 12:20:03;;;;;;;5.28;2.78;;;11.90;91.30;;;;;;5031141;28;20480;-89
2021/04/30 12:22:29;;;;;;;4.85;2.80;;;11.90;91.70;;;;;;5029750;28;20087;-81
2021/04/30 12:25:15;;;;;;;3.88;2.63;;;12.00;90.90;;;;;;5027550;28;20034;-82
2021/04/30 12:27:40;;;;;;;4.57;2.50;;;12.00;90.80;;;;;;5023677;28;20049;-79
2021/04/30 12:30:06;;;;;;;3.10;2.38;;;12.10;91.00;;;;;;5022547;28;20383;-77
2021/04/30 12:32:32;;;;;;;3.92;2.50;;;12.20;89.00;;;;;;5022350;28;20021;-83
2021/04/30 12:34:58;;;;;;;3.30;2.42;;;12.30;90.50;;;;;;5021694;28;20380;-81
2021/04/30 12:37:27;;;;;;;4.60;2.60;;;12.30;90.60;;;;;;5027807;28;20032;-81
2021/04/30 12:39:52;;;;;;;4.53;2.60;;;12.40;90.40;;;;;;5030828;28;20029;-80
2021/04/30 12:42:18;;;;;;;6.82;2.90;;;12.40;90.40;;;;;;5019752;28;20037;-81
2021/04/30 12:44:55;;;;;;;4.32;3.00;;;12.40;89.10;;;;;;5029200;28;20446;-89
2021/04/30 12:47:22;;;;;;;5.88;3.13;;;12.40;90.50;;;;;;5022879;28;20025;-81
2021/04/30 12:49:52;;;;;;;4.45;2.45;;;12.60;91.20;;;;;;5031976;28;20025;-78
2021/04/30 12:52:19;;;;;;;5.40;2.10;;;12.30;86.90;;;;;;5029502;28;20112;-81
2021/04/30 12:54:45;;;;;;;3.88;2.50;;;12.30;89.20;;;;;;5020181;28;20052;-79